Time;durP1;ratioP1;P1;durP2;ratioP2;P2;SDS_P1;SDS_P2;PMS_P1;PMS_P2;Temp;Humidity;BMP_temperature;BMP_pressure;BME280_temperature;BME280_humidity;BME280_pressure;Samples;Min_cycle;Max_cycle;Signal;HPM_P1;HPM_P2
2022/07/29 00:00:50;;;;;;;6.57;5.97;;;24.20;60.60;;;;;;5024004;28;20185;-85
2022/07/29 00:03:15;;;;;;;6.38;5.88;;;24.20;60.60;;;;;;4992774;28;20217;-85
2022/07/29 00:05:42;;;;;;;6.13;5.47;;;24.10;60.70;;;;;;5017963;28;20205;-85
2022/07/29 00:08:08;;;;;;;6.40;5.90;;;24.10;60.80;;;;;;5017284;28;20253;-85
2022/07/29 00:10:35;;;;;;;5.82;5.32;;;24.20;59.60;;;;;;5020338;28;20181;-85
2022/07/29 00:13:01;;;;;;;6.47;5.93;;;24.30;60.10;;;;;;4996649;28;20254;-86
2022/07/29 00:15:27;;;;;;;6.20;5.68;;;24.10;61.30;;;;;;5017346;28;20182;-86
2022/07/29 00:17:53;;;;;;;5.85;5.45;;;24.00;61.40;;;;;;5017281;28;20279;-84
2022/07/29 00:20:19;;;;;;;6.03;5.60;;;24.00;60.90;;;;;;5018904;28;20253;-85
2022/07/29 00:22:44;;;;;;;5.85;5.35;;;24.00;61.10;;;;;;5016071;28;20213;-86
2022/07/29 00:25:12;;;;;;;6.07;5.57;;;23.50;65.30;;;;;;5018505;28;20197;-86
2022/07/29 00:27:39;;;;;;;6.03;5.43;;;23.00;67.20;;;;;;5009293;28;20209;-83
2022/07/29 00:30:06;;;;;;;5.88;5.47;;;23.10;66.30;;;;;;4983130;28;20201;-84
2022/07/29 00:32:32;;;;;;;6.35;5.90;;;23.20;65.00;;;;;;5016410;28;20189;-84
2022/07/29 00:37:42;;;;;;;7.22;5.72;;;23.60;63.80;;;;;;5024688;28;20239;-85
2022/07/29 00:40:09;;;;;;;5.75;5.45;;;23.70;63.90;;;;;;5014238;28;20220;-84
2022/07/29 00:42:45;;;;;;;5.85;5.45;;;23.70;63.30;;;;;;5013282;28;20192;-85
2022/07/29 00:45:12;;;;;;;5.97;5.57;;;23.70;63.70;;;;;;5024670;28;20227;-85
2022/07/29 00:47:38;;;;;;;6.22;5.45;;;23.80;62.60;;;;;;5008126;28;20206;-85
2022/07/29 00:50:05;;;;;;;6.38;5.78;;;24.00;64.00;;;;;;5018573;28;20193;-85
2022/07/29 00:52:31;;;;;;;6.22;5.80;;;23.70;64.30;;;;;;5020914;28;20213;-85
2022/07/29 00:54:56;;;;;;;5.65;5.25;;;23.60;64.70;;;;;;5034307;28;20305;-84
2022/07/29 00:57:22;;;;;;;6.90;5.90;;;23.60;63.40;;;;;;5007401;28;20241;-85
2022/07/29 00:59:48;;;;;;;6.63;5.90;;;23.50;65.40;;;;;;5008194;28;20193;-85
2022/07/29 01:02:14;;;;;;;6.85;6.20;;;23.50;64.80;;;;;;5016636;28;20321;-86
2022/07/29 01:04:40;;;;;;;6.47;5.97;;;23.60;63.80;;;;;;5014816;28;20395;-86
2022/07/29 01:07:07;;;;;;;6.50;5.90;;;23.60;63.40;;;;;;5001128;28;20207;-86
2022/07/29 01:09:35;;;;;;;6.13;5.63;;;23.70;64.10;;;;;;5018117;28;20194;-86
2022/07/29 01:12:02;;;;;;;6.55;6.00;;;23.80;63.30;;;;;;5007975;28;20201;-85
2022/07/29 01:14:30;;;;;;;6.30;5.70;;;23.60;65.20;;;;;;5010633;28;20189;-85
2022/07/29 01:17:11;;;;;;;5.55;5.15;;;23.50;65.10;;;;;;5001998;28;20212;-85
2022/07/29 01:20:02;;;;;;;6.18;5.68;;;23.40;65.10;;;;;;5018559;28;20213;-86
2022/07/29 01:22:34;;;;;;;6.32;5.82;;;23.00;68.60;;;;;;5017175;28;20185;-85
2022/07/29 01:25:08;;;;;;;6.60;6.10;;;22.50;71.10;;;;;;5009075;28;20189;-85
2022/07/29 01:28:00;;;;;;;6.25;5.75;;;22.40;71.50;;;;;;5020840;28;20323;-86
2022/07/29 01:30:29;;;;;;;5.63;5.22;;;22.50;70.20;;;;;;5007808;28;20225;-84
2022/07/29 01:33:00;;;;;;;6.03;5.63;;;22.50;70.90;;;;;;5017727;28;20202;-85
2022/07/29 01:35:38;;;;;;;5.80;5.30;;;22.60;71.10;;;;;;4996221;28;20194;-86
2022/07/29 01:38:17;;;;;;;6.10;5.60;;;22.50;70.00;;;;;;5027091;28;20236;-85
2022/07/29 01:41:02;;;;;;;5.60;5.20;;;22.70;69.90;;;;;;5024939;28;20186;-85
2022/07/29 01:43:38;;;;;;;6.43;5.93;;;22.60;69.80;;;;;;5020610;28;20230;-85
2022/07/29 01:46:13;;;;;;;6.25;5.65;;;22.60;70.00;;;;;;5022488;28;20241;-85
2022/07/29 01:48:45;;;;;;;6.13;5.63;;;22.80;68.90;;;;;;5017097;28;20213;-86
2022/07/29 01:51:27;;;;;;;5.97;5.57;;;22.80;68.50;;;;;;5006280;28;20435;-85
2022/07/29 01:54:02;;;;;;;5.95;5.55;;;22.90;67.70;;;;;;5020650;28;20265;-87
2022/07/29 01:56:32;;;;;;;6.13;5.68;;;22.90;69.30;;;;;;5027263;28;20189;-86
2022/07/29 01:58:59;;;;;;;6.57;5.80;;;22.80;68.80;;;;;;5026277;28;20696;-85
2022/07/29 02:01:26;;;;;;;6.20;5.80;;;22.80;68.40;;;;;;5017563;28;20206;-85
2022/07/29 02:03:54;;;;;;;5.53;5.13;;;22.80;68.70;;;;;;5025760;28;20397;-85
2022/07/29 02:06:21;;;;;;;5.53;5.22;;;22.90;68.20;;;;;;5026840;28;20549;-85
2022/07/29 02:08:48;;;;;;;5.70;5.30;;;22.90;68.90;;;;;;5029648;28;20213;-86
2022/07/29 02:11:14;;;;;;;6.57;6.07;;;23.00;67.30;;;;;;5007486;28;20193;-86
2022/07/29 02:13:42;;;;;;;5.90;5.50;;;23.00;67.90;;;;;;5027571;28;20262;-85
2022/07/29 02:16:09;;;;;;;6.03;5.55;;;23.00;67.40;;;;;;5019325;28;20182;-85
2022/07/29 02:18:37;;;;;;;6.10;5.70;;;23.00;67.30;;;;;;5023048;28;20213;-85
2022/07/29 02:21:03;;;;;;;6.25;5.75;;;23.10;67.20;;;;;;5019348;28;20183;-86
2022/07/29 02:23:32;;;;;;;6.20;5.68;;;23.10;66.80;;;;;;5023103;28;20190;-85
2022/07/29 02:25:59;;;;;;;5.63;5.20;;;23.10;66.50;;;;;;5019584;28;20181;-86
2022/07/29 02:28:27;;;;;;;6.07;5.68;;;23.20;66.20;;;;;;5005882;28;20209;-85
2022/07/29 02:30:58;;;;;;;6.25;5.85;;;23.20;67.20;;;;;;5025349;28;20568;-86
2022/07/29 02:33:25;;;;;;;5.88;5.50;;;23.20;66.30;;;;;;5014589;28;20185;-85
2022/07/29 02:35:51;;;;;;;6.00;5.60;;;23.00;67.00;;;;;;5028483;28;20186;-85
2022/07/29 02:41:11;;;;;;;6.32;5.85;;;22.90;68.60;;;;;;5028977;28;20200;-84
2022/07/29 02:43:38;;;;;;;6.57;5.95;;;23.00;68.00;;;;;;5010577;28;20181;-84
2022/07/29 02:46:08;;;;;;;5.80;5.40;;;23.00;67.40;;;;;;5028540;28;20181;-85
2022/07/29 02:48:48;;;;;;;6.22;5.82;;;22.90;68.90;;;;;;5029297;28;20213;-86
2022/07/29 02:51:28;;;;;;;6.18;5.63;;;22.80;69.50;;;;;;5028468;28;20192;-85
2022/07/29 02:53:56;;;;;;;25.77;8.60;;;22.70;69.00;;;;;;5014150;28;20211;-86
2022/07/29 02:56:27;;;;;;;11.40;6.53;;;22.60;70.90;;;;;;5028765;28;20170;-84
2022/07/29 02:59:00;;;;;;;6.88;6.25;;;22.60;70.00;;;;;;5027981;28;20244;-85
2022/07/29 03:01:31;;;;;;;6.38;5.90;;;22.60;70.50;;;;;;5025959;28;20197;-84
2022/07/29 03:04:00;;;;;;;6.72;6.13;;;22.50;70.60;;;;;;5016542;28;20229;-84
2022/07/29 03:06:27;;;;;;;6.32;5.72;;;22.50;71.10;;;;;;5026991;28;20204;-85
2022/07/29 03:08:55;;;;;;;6.90;6.22;;;22.40;70.70;;;;;;5024652;28;20209;-84
2022/07/29 03:11:21;;;;;;;6.13;5.72;;;22.40;71.80;;;;;;5018476;28;20272;-85
2022/07/29 03:13:47;;;;;;;6.50;6.00;;;22.30;71.50;;;;;;5027818;28;20178;-86
2022/07/29 03:16:14;;;;;;;7.07;6.47;;;22.40;70.90;;;;;;5028326;28;20197;-86
2022/07/29 03:18:40;;;;;;;6.50;6.00;;;22.40;70.30;;;;;;5027810;28;20210;-84
2022/07/29 03:21:06;;;;;;;6.40;6.00;;;22.50;70.30;;;;;;5009425;28;20228;-86
2022/07/29 03:23:31;;;;;;;6.75;6.25;;;22.40;72.20;;;;;;5027660;28;20184;-85
2022/07/29 03:25:57;;;;;;;6.43;5.93;;;22.40;71.80;;;;;;5027017;28;20539;-84
2022/07/29 03:28:23;;;;;;;6.53;5.85;;;22.40;70.60;;;;;;5020193;28;20217;-84
2022/07/29 03:30:49;;;;;;;36.15;10.02;;;22.50;70.60;;;;;;5007065;28;20259;-85
2022/07/29 03:33:16;;;;;;;25.13;8.57;;;22.50;69.70;;;;;;5006382;28;20190;-84
2022/07/29 03:35:41;;;;;;;9.80;6.68;;;22.50;70.00;;;;;;5021764;28;20186;-85
2022/07/29 03:38:07;;;;;;;9.85;6.93;;;22.30;70.70;;;;;;5011524;28;20240;-85
2022/07/29 03:40:35;;;;;;;6.63;6.03;;;22.20;71.60;;;;;;5020031;28;20205;-85
2022/07/29 03:43:02;;;;;;;7.65;6.25;;;22.10;71.80;;;;;;5008461;28;20273;-85
2022/07/29 03:45:30;;;;;;;8.45;6.40;;;22.10;71.20;;;;;;5028837;28;20257;-83
2022/07/29 03:48:00;;;;;;;7.25;6.40;;;22.10;71.40;;;;;;5034325;28;20217;-84
2022/07/29 03:50:27;;;;;;;8.55;6.40;;;22.20;70.90;;;;;;5037209;28;20276;-84
2022/07/29 03:52:52;;;;;;;5.90;5.50;;;22.10;71.40;;;;;;5004102;28;20194;-84
2022/07/29 03:55:18;;;;;;;6.65;6.13;;;22.10;71.40;;;;;;5002580;28;20289;-84
2022/07/29 03:57:46;;;;;;;8.10;7.25;;;22.00;71.50;;;;;;5008043;28;20605;-83
2022/07/29 04:00:12;;;;;;;6.32;5.70;;;22.00;72.70;;;;;;5017290;28;20198;-86
2022/07/29 04:02:38;;;;;;;8.30;5.97;;;21.90;71.50;;;;;;5022226;28;20288;-86
2022/07/29 04:05:04;;;;;;;7.00;6.40;;;22.00;71.20;;;;;;5017000;28;20204;-86
2022/07/29 04:07:30;;;;;;;6.82;6.15;;;22.00;71.60;;;;;;5021662;28;20561;-85
2022/07/29 04:09:56;;;;;;;8.70;7.13;;;22.00;71.80;;;;;;5020257;28;20185;-85
2022/07/29 04:12:22;;;;;;;6.90;6.40;;;22.00;72.00;;;;;;5004872;28;20685;-85
2022/07/29 04:14:48;;;;;;;7.15;6.65;;;22.00;73.00;;;;;;5004272;28;20173;-84
2022/07/29 04:17:14;;;;;;;6.88;6.28;;;21.80;73.90;;;;;;5014901;28;20198;-84
2022/07/29 04:19:39;;;;;;;7.47;6.45;;;21.70;73.70;;;;;;4996013;28;20257;-84
2022/07/29 04:22:05;;;;;;;6.93;6.32;;;21.70;74.00;;;;;;5022678;28;20217;-84
2022/07/29 04:24:31;;;;;;;9.13;7.32;;;21.60;74.00;;;;;;5007114;28;20277;-84
2022/07/29 04:26:56;;;;;;;7.40;6.80;;;21.60;74.20;;;;;;4996548;28;20233;-87
2022/07/29 04:29:22;;;;;;;7.20;6.50;;;21.40;74.50;;;;;;4996702;28;20267;-84
2022/07/29 04:31:48;;;;;;;7.15;6.63;;;21.50;74.10;;;;;;5009728;28;20187;-85
2022/07/29 04:34:14;;;;;;;8.68;6.65;;;21.50;73.90;;;;;;5003044;28;20193;-84
2022/07/29 04:36:40;;;;;;;7.35;6.65;;;21.60;73.50;;;;;;4994428;28;20182;-85
2022/07/29 04:39:05;;;;;;;9.88;6.57;;;21.50;74.00;;;;;;5005316;28;20269;-84
2022/07/29 04:41:31;;;;;;;7.15;6.55;;;21.50;73.90;;;;;;5004880;28;20210;-86
2022/07/29 04:43:57;;;;;;;7.57;6.97;;;21.40;73.90;;;;;;5011866;28;20205;-84
2022/07/29 04:46:23;;;;;;;6.95;6.45;;;21.50;73.50;;;;;;4996790;28;20193;-85
2022/07/29 04:48:48;;;;;;;7.38;6.80;;;21.60;73.00;;;;;;5010841;28;20206;-85
2022/07/29 04:51:15;;;;;;;9.27;6.95;;;21.50;73.00;;;;;;5000379;28;20201;-83
2022/07/29 04:53:40;;;;;;;6.85;6.38;;;21.60;72.90;;;;;;5020303;28;20196;-85
2022/07/29 04:56:06;;;;;;;7.85;7.25;;;21.60;72.10;;;;;;5013585;28;20571;-84
2022/07/29 04:58:35;;;;;;;7.20;6.50;;;21.50;72.90;;;;;;5014643;28;20772;-84
2022/07/29 05:01:00;;;;;;;6.88;6.25;;;21.40;72.60;;;;;;5020031;28;20180;-88
2022/07/29 05:03:26;;;;;;;7.30;6.70;;;21.60;72.10;;;;;;5037789;28;20178;-87
2022/07/29 05:05:52;;;;;;;9.15;6.97;;;21.60;72.10;;;;;;5031184;28;20189;-84
2022/07/29 05:08:17;;;;;;;8.07;6.93;;;21.60;71.90;;;;;;5021311;28;20214;-84
2022/07/29 05:10:43;;;;;;;7.35;6.65;;;21.60;71.80;;;;;;5018599;28;20188;-84
2022/07/29 05:13:09;;;;;;;8.52;7.68;;;21.60;71.80;;;;;;5013099;28;20190;-87
2022/07/29 05:15:36;;;;;;;8.13;7.43;;;21.50;72.40;;;;;;5011330;28;20177;-84
2022/07/29 05:18:02;;;;;;;7.47;6.78;;;21.50;72.10;;;;;;5005747;28;20274;-84
2022/07/29 05:20:29;;;;;;;7.50;6.90;;;21.50;72.30;;;;;;5006699;28;20174;-87
2022/07/29 05:22:59;;;;;;;7.10;6.60;;;21.60;71.70;;;;;;5000341;28;20197;-85
2022/07/29 05:25:26;;;;;;;7.18;6.57;;;21.60;71.80;;;;;;5015841;28;20194;-85
2022/07/29 05:27:53;;;;;;;7.30;6.65;;;21.70;71.30;;;;;;5014154;28;20216;-86
2022/07/29 05:30:19;;;;;;;7.38;6.68;;;21.70;71.20;;;;;;5017104;28;20197;-86
2022/07/29 05:32:45;;;;;;;7.35;6.72;;;21.80;70.50;;;;;;5027908;28;20184;-85
2022/07/29 05:35:11;;;;;;;6.80;6.30;;;21.70;70.20;;;;;;5029990;28;20250;-85
2022/07/29 05:37:37;;;;;;;7.40;6.68;;;21.80;69.10;;;;;;5025593;28;20217;-85
2022/07/29 05:40:04;;;;;;;6.72;6.22;;;21.60;69.40;;;;;;5007841;28;20673;-85
2022/07/29 05:42:30;;;;;;;7.78;6.95;;;21.40;69.80;;;;;;5006711;28;20213;-85
2022/07/29 05:44:56;;;;;;;7.03;6.40;;;21.40;69.30;;;;;;5006439;28;20196;-85
2022/07/29 05:47:22;;;;;;;6.85;6.25;;;21.50;69.40;;;;;;5002915;28;20210;-84
2022/07/29 05:49:48;;;;;;;8.48;6.40;;;21.60;67.60;;;;;;5021084;28;20185;-84
2022/07/29 05:52:15;;;;;;;6.70;6.05;;;21.40;67.50;;;;;;5024023;28;20216;-84
2022/07/29 05:54:40;;;;;;;6.47;5.97;;;21.50;68.30;;;;;;5024071;28;20235;-85
2022/07/29 05:57:06;;;;;;;6.70;5.80;;;21.40;68.20;;;;;;5023430;28;20233;-84
2022/07/29 05:59:36;;;;;;;6.25;5.85;;;21.40;69.40;;;;;;5001895;28;20209;-85
2022/07/29 06:02:02;;;;;;;7.00;6.40;;;21.50;69.10;;;;;;5023808;28;20272;-86
2022/07/29 06:04:28;;;;;;;6.80;6.20;;;21.50;68.30;;;;;;5001978;28;20220;-83
2022/07/29 06:06:53;;;;;;;6.82;6.22;;;21.50;68.00;;;;;;5018940;28;20216;-85
2022/07/29 06:09:20;;;;;;;6.50;6.00;;;21.70;67.80;;;;;;5011133;28;20320;-83
2022/07/29 06:11:46;;;;;;;6.90;6.40;;;21.70;68.20;;;;;;5006726;28;20286;-85
2022/07/29 06:14:12;;;;;;;7.18;6.47;;;21.50;69.30;;;;;;5019935;28;20215;-84
2022/07/29 06:16:37;;;;;;;7.20;6.55;;;21.50;69.80;;;;;;5005646;28;20184;-83
2022/07/29 06:19:04;;;;;;;7.68;7.00;;;21.50;72.50;;;;;;4973849;28;20238;-85
2022/07/29 06:21:29;;;;;;;13.40;7.70;;;21.50;72.30;;;;;;5024738;28;20561;-86
2022/07/29 06:23:55;;;;;;;7.82;7.05;;;21.50;71.60;;;;;;5015299;28;20848;-86
2022/07/29 06:26:21;;;;;;;6.72;6.30;;;21.70;70.20;;;;;;5013045;28;20196;-86
2022/07/29 06:28:46;;;;;;;10.32;7.28;;;21.80;70.30;;;;;;5004673;28;20296;-85
2022/07/29 06:31:12;;;;;;;7.88;7.10;;;21.80;70.10;;;;;;4998787;28;20227;-86
2022/07/29 06:33:38;;;;;;;9.35;6.97;;;21.70;70.20;;;;;;4989477;28;20197;-88
2022/07/29 06:36:05;;;;;;;8.52;6.90;;;21.80;70.70;;;;;;5002024;28;20825;-85
2022/07/29 06:38:32;;;;;;;8.48;7.68;;;21.70;71.30;;;;;;5014915;28;20209;-85
2022/07/29 06:41:09;;;;;;;7.60;6.90;;;21.70;70.80;;;;;;4998793;28;20199;-86
2022/07/29 06:43:37;;;;;;;7.50;6.70;;;21.70;70.90;;;;;;5001631;28;20678;-85
2022/07/29 06:46:05;;;;;;;7.80;6.72;;;21.80;70.80;;;;;;5019184;28;20671;-85
2022/07/29 06:48:31;;;;;;;8.02;7.25;;;21.80;70.70;;;;;;5018309;28;20310;-88
2022/07/29 06:50:57;;;;;;;7.38;6.85;;;21.70;71.30;;;;;;5017964;28;20180;-84
2022/07/29 06:53:23;;;;;;;8.73;6.72;;;21.80;70.20;;;;;;5021725;28;20193;-84
2022/07/29 06:55:50;;;;;;;7.55;6.47;;;22.00;69.30;;;;;;5002180;28;20186;-86
2022/07/29 06:58:17;;;;;;;7.18;6.57;;;22.10;68.40;;;;;;5020412;28;20214;-85
2022/07/29 07:00:44;;;;;;;7.80;7.10;;;22.30;68.80;;;;;;5005470;28;20192;-85
2022/07/29 07:03:10;;;;;;;7.38;6.78;;;22.20;69.60;;;;;;5022260;28;20181;-87
2022/07/29 07:05:36;;;;;;;8.48;7.50;;;22.40;69.10;;;;;;4998950;28;20713;-87
2022/07/29 07:08:03;;;;;;;7.13;6.53;;;22.50;68.30;;;;;;5016407;28;20216;-87
2022/07/29 07:10:29;;;;;;;7.93;7.13;;;22.50;68.10;;;;;;5015628;28;20386;-85
2022/07/29 07:12:54;;;;;;;8.82;6.22;;;22.50;66.90;;;;;;5004351;28;20254;-85
2022/07/29 07:15:21;;;;;;;7.07;6.47;;;22.50;67.30;;;;;;5021286;28;20227;-86
2022/07/29 07:17:48;;;;;;;6.90;6.40;;;22.30;67.70;;;;;;5004995;28;20213;-84
2022/07/29 07:20:15;;;;;;;6.57;6.07;;;22.40;66.80;;;;;;5004328;28;20189;-86
2022/07/29 07:22:41;;;;;;;8.80;7.00;;;22.40;66.90;;;;;;5000056;28;20190;-85
2022/07/29 07:25:07;;;;;;;6.80;6.18;;;22.50;66.50;;;;;;5018924;28;20237;-86
2022/07/29 07:27:33;;;;;;;7.88;6.13;;;22.70;65.40;;;;;;5022329;28;20229;-85
2022/07/29 07:29:59;;;;;;;6.53;6.03;;;22.80;64.40;;;;;;5022472;28;20185;-85
2022/07/29 07:32:24;;;;;;;6.50;6.00;;;23.00;64.50;;;;;;4999763;28;20248;-86
2022/07/29 07:34:50;;;;;;;7.28;6.45;;;23.10;62.80;;;;;;5020310;28;20278;-86
2022/07/29 07:37:16;;;;;;;6.85;6.07;;;23.10;63.40;;;;;;5014540;28;20229;-87
2022/07/29 07:39:42;;;;;;;6.82;6.22;;;23.10;62.50;;;;;;5023900;28;20209;-87
2022/07/29 07:42:10;;;;;;;7.05;6.43;;;23.20;62.00;;;;;;5020456;28;20190;-87
2022/07/29 07:44:35;;;;;;;8.90;6.47;;;23.10;62.40;;;;;;5014947;28;20190;-86
2022/07/29 07:47:01;;;;;;;6.40;5.90;;;23.10;62.80;;;;;;5003466;28;20210;-86
2022/07/29 07:49:27;;;;;;;6.45;5.95;;;23.30;60.50;;;;;;5023535;28;20212;-87
2022/07/29 07:51:52;;;;;;;6.30;5.80;;;23.20;61.00;;;;;;5011534;28;20209;-89
2022/07/29 07:54:18;;;;;;;6.53;5.75;;;23.40;60.50;;;;;;5017343;28;20235;-87
2022/07/29 07:56:44;;;;;;;6.28;5.68;;;23.40;60.80;;;;;;5026867;28;20182;-86
2022/07/29 07:59:09;;;;;;;5.45;5.10;;;23.30;58.70;;;;;;5016878;28;20196;-85
2022/07/29 08:01:35;;;;;;;7.82;5.22;;;23.60;58.00;;;;;;5013363;28;20209;-85
2022/07/29 08:04:01;;;;;;;5.90;5.40;;;23.80;56.40;;;;;;5005432;28;20216;-84
2022/07/29 08:06:27;;;;;;;6.25;5.70;;;24.10;55.60;;;;;;5016677;28;20225;-86
2022/07/29 08:08:52;;;;;;;6.90;5.43;;;24.00;56.20;;;;;;4989539;28;20253;-86
2022/07/29 08:11:20;;;;;;;6.07;5.47;;;24.00;55.40;;;;;;5020627;28;20200;-84
2022/07/29 08:13:47;;;;;;;5.53;4.97;;;23.80;55.60;;;;;;5023430;28;20185;-85
2022/07/29 08:16:14;;;;;;;5.93;5.32;;;24.10;55.00;;;;;;5005925;28;20189;-85
2022/07/29 08:18:41;;;;;;;6.10;5.40;;;24.10;54.20;;;;;;5023351;28;20774;-86
2022/07/29 08:21:07;;;;;;;5.95;5.45;;;23.80;54.80;;;;;;5014905;28;20189;-86
2022/07/29 08:23:39;;;;;;;6.07;5.25;;;23.90;56.60;;;;;;5019263;28;20209;-84
2022/07/29 08:26:10;;;;;;;6.38;5.78;;;24.10;57.00;;;;;;5012888;28;20189;-84
2022/07/29 08:28:37;;;;;;;5.60;5.13;;;24.40;54.50;;;;;;5014297;28;20213;-85
2022/07/29 08:31:02;;;;;;;8.52;5.57;;;24.60;54.50;;;;;;4999428;28;20188;-85
2022/07/29 08:33:28;;;;;;;7.05;6.28;;;24.90;52.30;;;;;;5012189;28;20197;-87
2022/07/29 08:35:54;;;;;;;11.98;5.57;;;25.00;52.20;;;;;;5018170;28;20209;-86
2022/07/29 08:38:19;;;;;;;5.53;5.10;;;25.30;51.90;;;;;;5020619;28;20681;-85
2022/07/29 08:40:46;;;;;;;6.00;5.50;;;25.40;52.30;;;;;;5021840;28;20194;-84
2022/07/29 08:43:12;;;;;;;6.38;5.50;;;25.30;50.60;;;;;;5001474;28;20189;-85
2022/07/29 08:45:50;;;;;;;5.93;5.03;;;25.50;50.60;;;;;;5005860;28;20200;-85
2022/07/29 08:48:21;;;;;;;10.30;5.05;;;25.90;48.30;;;;;;5020470;28;20217;-86
2022/07/29 08:50:52;;;;;;;5.97;5.00;;;26.00;49.10;;;;;;5014749;28;20237;-86
2022/07/29 08:53:19;;;;;;;6.13;5.40;;;25.90;48.30;;;;;;5022759;28;20228;-86
2022/07/29 08:55:49;;;;;;;6.28;5.10;;;25.60;47.50;;;;;;5010255;28;20204;-86
2022/07/29 08:58:15;;;;;;;5.20;4.90;;;25.30;49.00;;;;;;5014566;28;20893;-85
2022/07/29 09:00:45;;;;;;;7.93;5.15;;;25.30;48.60;;;;;;5005334;28;20194;-85
2022/07/29 09:03:14;;;;;;;5.30;4.82;;;25.50;47.80;;;;;;5017325;28;20192;-87
2022/07/29 09:05:42;;;;;;;6.70;4.80;;;25.60;48.60;;;;;;5009338;28;20219;-88
2022/07/29 09:08:08;;;;;;;6.07;5.55;;;25.70;47.00;;;;;;5009638;28;20558;-86
2022/07/29 09:10:35;;;;;;;5.55;5.03;;;25.90;47.50;;;;;;5023201;28;20185;-86
2022/07/29 09:13:01;;;;;;;8.43;5.07;;;26.20;46.00;;;;;;5015124;28;20180;-86
2022/07/29 09:15:27;;;;;;;5.28;4.95;;;26.40;46.40;;;;;;5021230;28;20196;-87
2022/07/29 09:17:55;;;;;;;5.47;4.95;;;26.60;47.30;;;;;;4998239;28;20206;-85
2022/07/29 09:20:22;;;;;;;6.65;5.22;;;26.60;46.20;;;;;;5015518;28;20190;-85
2022/07/29 09:22:49;;;;;;;5.95;5.20;;;26.60;45.80;;;;;;5011812;28;20194;-86
2022/07/29 09:25:35;;;;;;;5.47;5.07;;;26.60;46.00;;;;;;5003766;28;20217;-86
2022/07/29 09:28:16;;;;;;;5.78;5.20;;;26.40;47.10;;;;;;5019075;28;20205;-86
2022/07/29 09:31:11;;;;;;;5.85;5.35;;;26.70;46.50;;;;;;5025251;28;20203;-84
2022/07/29 09:33:41;;;;;;;8.27;5.50;;;27.00;46.30;;;;;;5008490;28;20277;-85
2022/07/29 09:36:09;;;;;;;7.65;5.63;;;27.10;45.10;;;;;;5001043;28;20186;-86
2022/07/29 09:38:36;;;;;;;5.82;5.20;;;27.30;44.30;;;;;;5018877;28;20542;-89
2022/07/29 09:41:04;;;;;;;6.45;5.20;;;27.20;43.80;;;;;;4999272;28;20280;-89
2022/07/29 09:43:30;;;;;;;6.28;5.43;;;27.30;44.80;;;;;;5026508;28;20611;-85
2022/07/29 09:46:09;;;;;;;6.18;5.15;;;27.40;44.50;;;;;;5008161;28;20248;-86
2022/07/29 09:48:34;;;;;;;5.80;5.22;;;27.50;43.20;;;;;;4994399;28;20262;-86
2022/07/29 09:51:01;;;;;;;5.97;5.32;;;27.30;43.50;;;;;;5002199;28;20195;-86
2022/07/29 09:53:37;;;;;;;6.25;5.20;;;27.10;45.00;;;;;;5003724;28;20731;-86
2022/07/29 09:56:06;;;;;;;5.55;5.20;;;27.30;44.80;;;;;;5018885;28;20196;-85
2022/07/29 09:58:35;;;;;;;7.93;5.53;;;27.30;44.70;;;;;;5024289;28;20234;-85
2022/07/29 10:01:02;;;;;;;5.40;4.90;;;27.50;44.70;;;;;;5026578;28;20185;-85
2022/07/29 10:03:27;;;;;;;5.70;5.18;;;27.50;43.00;;;;;;5028248;28;20188;-86
2022/07/29 10:06:08;;;;;;;5.70;5.10;;;27.60;40.90;;;;;;5029554;28;20193;-85
2022/07/29 10:08:34;;;;;;;5.43;4.88;;;27.70;40.60;;;;;;5017066;28;20240;-85
2022/07/29 10:11:16;;;;;;;5.60;4.80;;;27.60;42.20;;;;;;5004362;28;20279;-86
2022/07/29 10:13:44;;;;;;;5.07;4.57;;;27.90;41.10;;;;;;5006449;28;20193;-85
2022/07/29 10:16:11;;;;;;;5.70;5.20;;;28.40;39.80;;;;;;5029081;28;20221;-88
2022/07/29 10:18:42;;;;;;;4.97;4.68;;;28.70;38.90;;;;;;5016276;28;20237;-84
2022/07/29 10:21:09;;;;;;;7.90;5.13;;;29.00;38.90;;;;;;5025924;28;20185;-88
2022/07/29 10:23:36;;;;;;;5.45;4.95;;;29.30;38.50;;;;;;5000998;28;20217;-88
2022/07/29 10:26:03;;;;;;;5.60;4.97;;;29.60;37.20;;;;;;5019023;28;20190;-86
2022/07/29 10:28:30;;;;;;;5.47;5.07;;;29.60;36.10;;;;;;5002490;28;20224;-87
2022/07/29 10:31:02;;;;;;;6.82;5.50;;;29.80;36.70;;;;;;5011256;28;20193;-85
2022/07/29 10:33:37;;;;;;;7.18;5.47;;;30.00;35.90;;;;;;5014904;28;20193;-86
2022/07/29 10:36:32;;;;;;;6.15;5.30;;;29.80;36.30;;;;;;5024869;28;20173;-85
2022/07/29 10:39:43;;;;;;;5.40;4.97;;;29.40;36.60;;;;;;4997079;28;20217;-86
2022/07/29 10:42:18;;;;;;;6.85;5.13;;;29.70;36.30;;;;;;5040157;28;20246;-90
2022/07/29 10:44:45;;;;;;;5.40;5.00;;;30.00;35.50;;;;;;5034273;28;20173;-89
2022/07/29 10:47:24;;;;;;;5.70;5.30;;;30.00;36.30;;;;;;5020585;28;20213;-87
2022/07/29 10:50:04;;;;;;;6.43;5.30;;;30.00;35.30;;;;;;5022291;28;20244;-85
2022/07/29 10:52:53;;;;;;;4.97;4.53;;;29.70;33.90;;;;;;5009423;28;20749;-85
2022/07/29 10:55:48;;;;;;;7.25;4.90;;;29.90;35.10;;;;;;5019158;28;20180;-86
2022/07/29 10:58:18;;;;;;;5.25;4.75;;;29.80;34.70;;;;;;5025221;28;20212;-84
2022/07/29 11:00:49;;;;;;;5.10;4.70;;;29.70;34.30;;;;;;5008113;28;20197;-87
2022/07/29 11:03:40;;;;;;;5.28;4.97;;;30.20;33.50;;;;;;5022803;28;20264;-83
2022/07/29 11:06:06;;;;;;;4.97;4.57;;;30.50;34.50;;;;;;5012307;28;20504;-85
2022/07/29 11:08:32;;;;;;;5.07;4.68;;;30.40;32.50;;;;;;5027698;28;20244;-87
2022/07/29 11:11:20;;;;;;;5.25;4.78;;;30.10;32.60;;;;;;5020222;28;20181;-85
2022/07/29 11:13:51;;;;;;;5.05;4.60;;;29.90;33.70;;;;;;5006080;28;20201;-85
2022/07/29 11:16:18;;;;;;;6.10;4.53;;;30.30;32.40;;;;;;5023453;28;20184;-85
2022/07/29 11:19:12;;;;;;;5.60;4.80;;;30.50;32.80;;;;;;5022667;28;20228;-85
2022/07/29 11:21:39;;;;;;;5.20;4.72;;;30.20;32.90;;;;;;5027945;28;20203;-87
2022/07/29 11:24:33;;;;;;;9.13;5.03;;;29.90;32.80;;;;;;5011617;28;20197;-87
2022/07/29 11:27:21;;;;;;;4.90;4.50;;;29.80;34.10;;;;;;5010499;28;20298;-86
2022/07/29 11:29:53;;;;;;;4.65;4.30;;;29.90;32.90;;;;;;5018777;28;20220;-87
2022/07/29 11:32:20;;;;;;;4.68;4.38;;;30.00;33.00;;;;;;5015057;28;20190;-85
2022/07/29 11:34:50;;;;;;;4.93;4.63;;;30.00;33.50;;;;;;5020290;28;20672;-85
2022/07/29 11:37:18;;;;;;;5.43;5.05;;;29.90;33.30;;;;;;5014905;28;20206;-84
2022/07/29 11:39:54;;;;;;;5.25;4.75;;;29.60;33.80;;;;;;5014210;28;20194;-86
2022/07/29 11:42:20;;;;;;;6.38;4.57;;;29.40;35.00;;;;;;5007872;28;20184;-85
2022/07/29 11:45:23;;;;;;;4.88;4.47;;;29.30;35.30;;;;;;5012004;28;20186;-85
2022/07/29 11:47:52;;;;;;;7.05;4.70;;;29.40;33.90;;;;;;5024594;28;20314;-86
2022/07/29 11:50:31;;;;;;;4.40;4.05;;;29.40;34.20;;;;;;5024167;28;20193;-87
2022/07/29 11:52:58;;;;;;;4.97;4.40;;;29.60;33.80;;;;;;5011000;28;20205;-86
2022/07/29 11:55:24;;;;;;;4.38;3.97;;;29.80;33.10;;;;;;5031757;28;20186;-86
2022/07/29 11:57:58;;;;;;;6.07;4.68;;;30.30;33.00;;;;;;4997455;28;20245;-86
2022/07/29 12:00:27;;;;;;;5.18;4.43;;;30.90;30.70;;;;;;5004776;28;20191;-86
2022/07/29 12:02:54;;;;;;;5.25;4.63;;;31.00;31.20;;;;;;5025409;28;20212;-86
2022/07/29 12:05:20;;;;;;;4.88;4.47;;;31.10;31.60;;;;;;5019419;28;20328;-86
2022/07/29 12:07:48;;;;;;;4.95;4.60;;;30.80;31.40;;;;;;5031645;28;20303;-86
2022/07/29 12:10:14;;;;;;;9.02;5.07;;;30.80;30.50;;;;;;5010938;28;20182;-86
2022/07/29 12:12:39;;;;;;;4.75;4.43;;;30.80;30.90;;;;;;5022205;28;20428;-86
2022/07/29 12:15:20;;;;;;;4.50;4.13;;;30.90;31.30;;;;;;5024410;28;20185;-86
2022/07/29 12:17:47;;;;;;;6.00;4.43;;;30.90;30.90;;;;;;5028752;28;20206;-86
2022/07/29 12:20:13;;;;;;;4.68;4.28;;;30.90;31.20;;;;;;5009426;28;20197;-86
2022/07/29 12:22:41;;;;;;;6.18;4.70;;;30.80;32.10;;;;;;5011069;28;20190;-85
2022/07/29 12:25:11;;;;;;;11.77;5.07;;;30.80;32.00;;;;;;5028654;28;20293;-86
2022/07/29 12:27:38;;;;;;;5.28;4.63;;;30.70;32.40;;;;;;5024841;28;20205;-86
2022/07/29 12:30:14;;;;;;;4.63;4.28;;;31.10;32.30;;;;;;5010151;28;20193;-86
2022/07/29 12:32:44;;;;;;;5.55;4.20;;;31.50;31.20;;;;;;5016723;28;20170;-86
2022/07/29 12:35:19;;;;;;;4.88;4.30;;;31.60;30.10;;;;;;5028706;28;20212;-86
2022/07/29 12:37:51;;;;;;;9.70;4.40;;;31.50;30.50;;;;;;5030978;28;20281;-87
2022/07/29 12:40:17;;;;;;;4.45;4.05;;;31.70;29.90;;;;;;4994938;28;20197;-88
2022/07/29 12:43:06;;;;;;;4.63;4.22;;;31.50;30.00;;;;;;5031850;28;20231;-89
2022/07/29 12:45:31;;;;;;;4.63;4.22;;;31.30;30.30;;;;;;5041280;28;20169;-87
2022/07/29 12:47:58;;;;;;;5.07;4.57;;;31.10;31.00;;;;;;5021211;28;20249;-86
2022/07/29 12:50:24;;;;;;;8.23;4.60;;;31.10;31.30;;;;;;5005923;28;20179;-85
2022/07/29 12:52:50;;;;;;;4.68;4.30;;;31.20;31.70;;;;;;5006333;28;20264;-86
2022/07/29 12:55:36;;;;;;;5.20;4.40;;;30.60;31.50;;;;;;4994033;28;20216;-87
2022/07/29 12:58:02;;;;;;;3.90;3.65;;;30.50;32.00;;;;;;5015505;28;20217;-88
2022/07/29 13:00:28;;;;;;;5.20;4.20;;;30.30;32.80;;;;;;5016445;28;20190;-86